Time;durP1;ratioP1;P1;durP2;ratioP2;P2;SDS_P1;SDS_P2;PMS_P1;PMS_P2;Temp;Humidity;BMP_temperature;BMP_pressure;BME280_temperature;BME280_humidity;BME280_pressure;Samples;Min_cycle;Max_cycle;Signal;HPM_P1;HPM_P2
2023/08/25 00:01:28;;;;;;;0.50;0.20;;;;;;;20.08;100.00;99763.03;4973333;28;20446;-48
2023/08/25 00:03:55;;;;;;;0.50;0.20;;;;;;;19.97;100.00;99758.47;4973437;28;20475;-48
2023/08/25 00:06:21;;;;;;;0.50;0.20;;;;;;;19.96;100.00;99758.56;4972965;28;20855;-48
2023/08/25 00:08:48;;;;;;;0.50;0.20;;;;;;;19.92;100.00;99757.09;4973245;28;20958;-49
2023/08/25 00:11:14;;;;;;;0.50;0.20;;;;;;;19.86;100.00;99753.00;4973032;28;20593;-50
2023/08/25 00:13:41;;;;;;;0.50;0.20;;;;;;;19.85;100.00;99748.59;4973290;28;20458;-48
2023/08/25 00:16:09;;;;;;;0.50;0.30;;;;;;;19.86;100.00;99735.97;4973204;28;20917;-47
2023/08/25 00:18:36;;;;;;;0.50;0.20;;;;;;;19.74;100.00;99741.34;4973080;28;20549;-47
2023/08/25 00:21:02;;;;;;;0.50;0.20;;;;;;;19.71;100.00;99740.69;4973012;28;20542;-48
2023/08/25 00:23:29;;;;;;;0.50;0.20;;;;;;;19.73;100.00;99738.72;4972938;28;20461;-48
2023/08/25 00:25:55;;;;;;;0.50;0.20;;;;;;;19.74;100.00;99730.53;4972896;28;20450;-48
2023/08/25 00:28:22;;;;;;;0.60;0.53;;;;;;;19.69;100.00;99730.00;4973105;28;20440;-47
2023/08/25 00:30:48;;;;;;;0.40;0.20;;;;;;;19.77;100.00;99746.50;4973179;28;20863;-48
2023/08/25 00:33:15;;;;;;;0.50;0.20;;;;;;;19.71;100.00;99740.69;4972978;28;20450;-47
2023/08/25 00:35:42;;;;;;;0.50;0.30;;;;;;;19.75;100.00;99743.06;4984805;28;20453;-48
2023/08/25 00:38:09;;;;;;;0.50;0.20;;;;;;;19.71;100.00;99741.53;4973273;28;20497;-48
2023/08/25 00:40:36;;;;;;;0.50;0.30;;;;;;;19.72;100.00;99740.56;4974910;28;20450;-48
2023/08/25 00:43:03;;;;;;;0.50;0.20;;;;;;;19.59;100.00;99734.38;4976537;28;20508;-48
2023/08/25 00:45:35;;;;;;;0.50;0.20;;;;;;;19.52;100.00;99749.25;4976391;28;20450;-48
2023/08/25 00:48:02;;;;;;;2.60;2.40;;;;;;;19.53;100.00;99749.16;4976454;28;20466;-47
2023/08/25 00:50:29;;;;;;;0.50;0.20;;;;;;;19.49;100.00;99741.41;4976268;28;20477;-47
2023/08/25 00:52:56;;;;;;;0.50;0.20;;;;;;;19.34;100.00;99739.84;4975960;28;20486;-47
2023/08/25 00:55:23;;;;;;;0.50;0.20;;;;;;;19.43;100.00;99739.16;4976382;28;20545;-48
2023/08/25 00:57:50;;;;;;;0.50;0.20;;;;;;;19.50;100.00;99743.13;4976342;28;20557;-47
2023/08/25 01:00:17;;;;;;;0.50;0.20;;;;;;;19.39;100.00;99730.44;4976494;28;20539;-47
2023/08/25 01:02:44;;;;;;;0.50;0.20;;;;;;;19.45;100.00;99732.66;4976292;28;20485;-47
2023/08/25 01:05:11;;;;;;;0.50;0.20;;;;;;;19.28;100.00;99727.66;4975931;28;20490;-48
2023/08/25 01:07:37;;;;;;;0.50;0.20;;;;;;;19.23;100.00;99725.31;4975810;28;20626;-48
2023/08/25 01:10:04;;;;;;;0.50;0.20;;;;;;;19.13;100.00;99718.88;4975800;28;20465;-47
2023/08/25 01:12:47;;;;;;;0.50;0.20;;;;;;;19.19;100.00;99707.66;4976009;28;20450;-47
2023/08/25 01:15:25;;;;;;;0.50;0.20;;;;;;;19.19;100.00;99718.44;4975844;28;20457;-47
2023/08/25 01:18:20;;;;;;;0.50;0.20;;;;;;;19.28;100.00;99716.03;4975842;28;20477;-48
2023/08/25 01:20:48;;;;;;;0.50;0.20;;;;;;;19.33;100.00;99711.19;4966634;28;20446;-48
2023/08/25 01:23:46;;;;;;;0.50;0.20;;;;;;;19.32;100.00;99714.81;4975697;28;20512;-47
2023/08/25 01:26:13;;;;;;;0.50;0.20;;;;;;;19.23;100.00;99717.25;4975510;28;20481;-48
2023/08/25 01:28:40;;;;;;;0.50;0.20;;;;;;;19.25;100.00;99714.44;4975876;28;20431;-48
2023/08/25 01:31:07;;;;;;;0.40;0.20;;;;;;;19.31;100.00;99721.19;4975314;28;21002;-48
2023/08/25 01:33:34;;;;;;;0.50;0.20;;;;;;;19.36;100.00;99717.19;4975687;28;20466;-48
2023/08/25 01:36:29;;;;;;;0.50;0.20;;;;;;;19.44;100.00;99724.69;4988444;28;21017;-50
2023/08/25 01:39:06;;;;;;;0.50;0.30;;;;;;;19.41;100.00;99722.22;4975399;28;20533;-50
2023/08/25 01:41:41;;;;;;;0.50;0.20;;;;;;;19.46;100.00;99718.25;4987839;28;20533;-50
2023/08/25 01:44:07;;;;;;;0.50;0.30;;;;;;;19.47;100.00;99719.09;4975444;28;20428;-50
2023/08/25 01:46:36;;;;;;;0.50;0.20;;;;;;;19.38;100.00;99730.56;4975313;28;20869;-50
2023/08/25 01:49:04;;;;;;;0.50;0.20;;;;;;;19.33;100.00;99741.69;4975069;28;20461;-50
2023/08/25 01:51:32;;;;;;;0.50;0.30;;;;;;;19.36;100.00;99741.47;4974199;28;20500;-51
2023/08/25 01:53:59;;;;;;;0.50;0.20;;;;;;;19.33;100.00;99739.00;4975286;28;20435;-50
2023/08/25 01:56:26;;;;;;;0.50;0.20;;;;;;;19.21;100.00;99738.06;4975175;28;20476;-50
2023/08/25 01:58:52;;;;;;;0.50;0.20;;;;;;;19.17;100.00;99732.97;4974927;28;20519;-50
2023/08/25 02:01:19;;;;;;;0.50;0.20;;;;;;;19.15;100.00;99726.84;4975046;28;20924;-50
2023/08/25 02:03:45;;;;;;;0.50;0.20;;;;;;;19.12;100.00;99722.53;4974758;28;20462;-50
2023/08/25 02:06:12;;;;;;;0.50;0.20;;;;;;;19.12;100.00;99713.59;4975023;28;20931;-50
2023/08/25 02:08:38;;;;;;;0.50;0.20;;;;;;;19.22;100.00;99722.75;4975218;28;20454;-51
2023/08/25 02:11:05;;;;;;;1.70;1.60;;;;;;;19.08;100.00;99718.38;4975420;28;20468;-50
2023/08/25 02:13:31;;;;;;;0.50;0.20;;;;;;;19.05;100.00;99709.63;4974858;28;20433;-51
2023/08/25 02:15:58;;;;;;;0.50;0.20;;;;;;;19.09;100.00;99708.44;4974633;28;20437;-51
2023/08/25 02:18:24;;;;;;;0.50;0.20;;;;;;;18.93;100.00;99712.25;4974875;28;20521;-50
2023/08/25 02:20:51;;;;;;;0.50;0.20;;;;;;;19.19;100.00;99713.06;4974837;28;20427;-51
2023/08/25 02:23:17;;;;;;;0.50;0.20;;;;;;;18.80;100.00;99703.34;4974319;28;20450;-51
2023/08/25 02:25:44;;;;;;;5.90;4.27;;;;;;;19.14;100.00;99699.03;4974515;28;20448;-51
2023/08/25 02:28:10;;;;;;;0.47;0.20;;;;;;;19.20;100.00;99709.38;4974580;28;20454;-51
2023/08/25 02:30:36;;;;;;;0.50;0.20;;;;;;;19.46;100.00;99715.53;4974426;28;20572;-50
2023/08/25 02:33:03;;;;;;;0.50;0.20;;;;;;;19.18;100.00;99702.38;4974258;28;20458;-51
2023/08/25 02:35:30;;;;;;;0.40;0.20;;;;;;;19.17;100.00;99711.41;4984721;28;20536;-50
2023/08/25 02:38:05;;;;;;;0.50;0.20;;;;;;;19.17;100.00;99708.72;4976503;28;20536;-50
2023/08/25 02:40:32;;;;;;;0.50;0.20;;;;;;;19.01;100.00;99697.34;4974462;28;20474;-51
2023/08/25 02:43:00;;;;;;;0.50;0.20;;;;;;;18.92;100.00;99694.38;4974152;28;20601;-50
2023/08/25 02:45:27;;;;;;;0.50;0.20;;;;;;;18.87;100.00;99687.59;4974187;28;20425;-50
2023/08/25 02:47:54;;;;;;;0.50;0.30;;;;;;;18.94;100.00;99678.97;4961244;28;20481;-51
2023/08/25 02:50:21;;;;;;;0.50;0.30;;;;;;;18.91;100.00;99673.81;4973936;28;21007;-50
2023/08/25 02:52:48;;;;;;;0.50;0.20;;;;;;;18.94;100.00;99668.19;4973941;28;21011;-50
2023/08/25 02:55:18;;;;;;;0.50;0.20;;;;;;;18.95;100.00;99663.66;4974126;28;20458;-51
2023/08/25 02:57:49;;;;;;;0.50;0.20;;;;;;;19.09;100.00;99665.34;4973937;28;20474;-51
2023/08/25 03:00:17;;;;;;;0.50;0.20;;;;;;;19.38;100.00;99666.72;4975230;28;20461;-50
2023/08/25 03:02:43;;;;;;;0.50;0.20;;;;;;;19.49;100.00;99663.22;4974057;28;20429;-50
2023/08/25 03:05:11;;;;;;;0.50;0.30;;;;;;;19.17;100.00;99653.00;4973810;28;20969;-51
2023/08/25 03:07:38;;;;;;;0.50;0.20;;;;;;;19.15;100.00;99652.25;4973769;28;20470;-51
2023/08/25 03:10:05;;;;;;;0.50;0.20;;;;;;;19.08;100.00;99640.22;4973641;28;20440;-50
2023/08/25 03:12:31;;;;;;;0.50;0.20;;;;;;;19.02;100.00;99646.06;4973675;28;20457;-51
2023/08/25 03:14:57;;;;;;;0.50;0.30;;;;;;;19.27;100.00;99630.75;4973894;28;20454;-50
2023/08/25 03:17:24;;;;;;;1.03;1.03;;;;;;;19.40;100.00;99627.03;4973832;28;20474;-50
2023/08/25 03:19:51;;;;;;;0.50;0.30;;;;;;;19.59;100.00;99637.28;4973764;28;20457;-50
2023/08/25 03:22:17;;;;;;;0.40;0.20;;;;;;;19.47;100.00;99622.06;4973378;28;20457;-50
2023/08/25 03:24:44;;;;;;;0.40;0.20;;;;;;;19.40;100.00;99610.00;4973579;28;20436;-50
2023/08/25 03:27:11;;;;;;;0.40;0.20;;;;;;;19.40;100.00;99605.47;4973640;28;20598;-50
2023/08/25 03:29:38;;;;;;;0.50;0.20;;;;;;;19.45;100.00;99611.34;4973699;28;20827;-50
2023/08/25 03:32:05;;;;;;;0.50;0.20;;;;;;;19.44;100.00;99615.03;4973570;28;20496;-50
2023/08/25 03:34:31;;;;;;;0.50;0.20;;;;;;;19.45;100.00;99610.50;4976572;28;20548;-50
2023/08/25 03:36:58;;;;;;;0.50;0.20;;;;;;;19.41;100.00;99600.94;4983013;28;20459;-50
2023/08/25 03:39:24;;;;;;;0.50;0.20;;;;;;;19.38;100.00;99593.09;4973313;28;20456;-50
2023/08/25 03:41:50;;;;;;;0.50;0.20;;;;;;;19.34;100.00;99595.16;4973632;28;20553;-50
2023/08/25 03:44:17;;;;;;;0.50;0.20;;;;;;;19.34;100.00;99587.06;4973147;28;20896;-50
2023/08/25 03:46:45;;;;;;;0.47;0.30;;;;;;;19.22;100.00;99582.63;4973322;28;20988;-50
2023/08/25 03:49:11;;;;;;;0.50;0.30;;;;;;;19.39;100.00;99590.28;4973381;28;20450;-50
2023/08/25 03:51:38;;;;;;;0.50;0.20;;;;;;;19.45;100.00;99588.94;4973508;28;20991;-49
2023/08/25 03:54:06;;;;;;;0.50;0.20;;;;;;;19.56;100.00;99580.06;4973193;28;20494;-50
2023/08/25 03:56:32;;;;;;;0.40;0.20;;;;;;;19.62;100.00;99571.50;4974264;28;20551;-51
2023/08/25 03:58:59;;;;;;;0.40;0.20;;;;;;;19.37;100.00;99573.38;4973169;28;20913;-50
2023/08/25 04:01:25;;;;;;;0.50;0.20;;;;;;;19.67;100.00;99567.47;4973408;28;20512;-50
2023/08/25 04:03:52;;;;;;;0.40;0.20;;;;;;;19.82;100.00;99566.28;4973259;28;20554;-50
2023/08/25 04:06:18;;;;;;;0.43;0.20;;;;;;;19.90;100.00;99576.47;4973277;28;20474;-50
2023/08/25 04:08:44;;;;;;;0.50;0.20;;;;;;;19.83;100.00;99604.88;4972943;28;20454;-50
2023/08/25 04:11:11;;;;;;;0.40;0.20;;;;;;;19.73;100.00;99664.06;4973255;28;20475;-50
2023/08/25 04:13:37;;;;;;;0.50;0.30;;;;;;;19.59;100.00;99690.38;4973311;28;20901;-50
2023/08/25 04:16:04;;;;;;;0.40;0.20;;;;;;;19.74;100.00;99652.34;4976032;28;20478;-50
2023/08/25 04:18:30;;;;;;;0.50;0.20;;;;;;;19.38;100.00;99595.78;4976743;28;20958;-50
2023/08/25 04:20:57;;;;;;;0.40;0.20;;;;;;;19.06;100.00;99561.38;4976819;28;20450;-51
2023/08/25 04:23:28;;;;;;;0.50;0.20;;;;;;;19.21;100.00;99548.56;4976463;28;20534;-50
2023/08/25 04:25:56;;;;;;;0.50;0.20;;;;;;;19.30;100.00;99566.69;4976950;28;20860;-50
2023/08/25 04:28:24;;;;;;;0.50;0.20;;;;;;;19.23;100.00;99557.38;4976787;28;20460;-50
2023/08/25 04:30:53;;;;;;;0.50;0.20;;;;;;;19.28;100.00;99565.97;4976628;28;20515;-50
2023/08/25 04:33:20;;;;;;;0.40;0.20;;;;;;;19.32;100.00;99583.63;4976678;28;20513;-50
2023/08/25 04:35:46;;;;;;;0.40;0.20;;;;;;;19.47;100.00;99585.16;4989182;28;20468;-51
2023/08/25 04:38:13;;;;;;;0.40;0.20;;;;;;;19.41;100.00;99577.53;4976751;28;20435;-51
2023/08/25 04:40:39;;;;;;;0.47;0.20;;;;;;;19.44;100.00;99585.38;4976607;28;20525;-50
2023/08/25 04:43:06;;;;;;;0.40;0.20;;;;;;;19.50;100.00;99600.25;4976653;28;20455;-50
2023/08/25 04:45:32;;;;;;;0.40;0.20;;;;;;;19.71;100.00;99600.44;4976448;28;20512;-51
2023/08/25 04:47:58;;;;;;;0.50;0.20;;;;;;;19.84;100.00;99609.31;4976349;28;20470;-50
2023/08/25 04:50:25;;;;;;;0.40;0.20;;;;;;;19.74;100.00;99611.88;4976027;28;20948;-50
2023/08/25 04:52:51;;;;;;;0.40;0.20;;;;;;;19.56;100.00;99621.34;4976472;28;20465;-50
2023/08/25 04:55:18;;;;;;;0.40;0.20;;;;;;;19.71;100.00;99612.09;4976516;28;20454;-50
2023/08/25 04:57:45;;;;;;;0.50;0.20;;;;;;;19.83;100.00;99603.06;4976193;28;20478;-50
2023/08/25 05:00:12;;;;;;;0.40;0.30;;;;;;;19.88;100.00;99599.16;4976166;28;20456;-50
2023/08/25 05:02:38;;;;;;;0.40;0.20;;;;;;;19.88;100.00;99608.09;4976264;28;20533;-50
2023/08/25 05:05:07;;;;;;;0.40;0.20;;;;;;;19.86;100.00;99612.72;4976053;28;20462;-50
2023/08/25 05:07:33;;;;;;;0.50;0.30;;;;;;;19.93;100.00;99637.41;4976198;28;20508;-50
2023/08/25 05:10:00;;;;;;;0.40;0.20;;;;;;;19.76;100.00;99639.59;4975888;28;20450;-50
2023/08/25 05:12:27;;;;;;;0.47;0.20;;;;;;;19.77;100.00;99637.75;4975999;28;20475;-49
2023/08/25 05:14:53;;;;;;;0.40;0.20;;;;;;;19.75;100.00;99637.88;4976079;28;20467;-48
2023/08/25 05:17:20;;;;;;;0.40;0.20;;;;;;;19.89;100.00;99654.81;4976058;28;20476;-49
2023/08/25 05:19:46;;;;;;;0.40;0.20;;;;;;;19.95;100.00;99684.00;4975965;28;20546;-49
2023/08/25 05:22:13;;;;;;;0.50;0.20;;;;;;;19.93;100.00;99696.75;4975784;28;20467;-49
2023/08/25 05:24:39;;;;;;;0.40;0.20;;;;;;;20.06;100.00;99719.13;4976120;28;20455;-49
2023/08/25 05:27:06;;;;;;;0.40;0.20;;;;;;;20.14;100.00;99727.47;4975872;28;20477;-49
2023/08/25 05:29:32;;;;;;;0.40;0.20;;;;;;;19.97;100.00;99709.91;4975691;28;20462;-49
2023/08/25 05:31:59;;;;;;;0.50;0.20;;;;;;;19.74;100.00;99713.50;4975343;28;20487;-48
2023/08/25 05:34:26;;;;;;;0.40;0.20;;;;;;;19.81;100.00;99710.22;4976562;28;20943;-50
2023/08/25 05:36:52;;;;;;;0.40;0.20;;;;;;;19.69;100.00;99683.31;4987049;28;20482;-49
2023/08/25 05:39:20;;;;;;;0.50;0.30;;;;;;;19.70;100.00;99707.47;4975457;28;20425;-50
2023/08/25 05:41:47;;;;;;;0.50;0.20;;;;;;;19.65;100.00;99704.25;4975510;28;20451;-49
2023/08/25 05:44:13;;;;;;;0.40;0.30;;;;;;;19.43;100.00;99696.03;4975279;28;20446;-49
2023/08/25 05:46:40;;;;;;;0.50;0.20;;;;;;;19.17;100.00;99689.88;4975163;28;20475;-49
2023/08/25 05:49:07;;;;;;;0.50;0.20;;;;;;;19.14;100.00;99673.94;4975366;28;20538;-49
2023/08/25 05:51:33;;;;;;;0.50;0.30;;;;;;;19.29;100.00;99666.53;4975211;28;20490;-49
2023/08/25 05:53:59;;;;;;;0.43;0.20;;;;;;;19.34;100.00;99669.78;4975149;28;20529;-49
2023/08/25 05:56:27;;;;;;;0.40;0.20;;;;;;;19.43;100.00;99671.75;4975202;28;20525;-49
2023/08/25 05:58:54;;;;;;;0.40;0.20;;;;;;;19.53;100.00;99667.41;4975044;28;20460;-50
2023/08/25 06:01:21;;;;;;;0.40;0.20;;;;;;;19.58;100.00;99662.53;4974924;28;20534;-50
2023/08/25 06:03:47;;;;;;;0.40;0.20;;;;;;;19.88;100.00;99662.06;4974829;28;20951;-49
2023/08/25 06:06:14;;;;;;;0.47;0.20;;;;;;;19.80;100.00;99667.19;4974915;28;20456;-49
2023/08/25 06:08:40;;;;;;;0.40;0.20;;;;;;;19.93;100.00;99675.19;4974574;28;20454;-49
2023/08/25 06:11:07;;;;;;;0.40;0.20;;;;;;;20.11;100.00;99669.22;4975143;28;20840;-49
2023/08/25 06:13:34;;;;;;;0.40;0.20;;;;;;;19.99;100.00;99645.00;4974814;28;20935;-49
2023/08/25 06:16:01;;;;;;;0.40;0.20;;;;;;;19.73;100.00;99604.72;4974499;28;20444;-50
2023/08/25 06:18:27;;;;;;;0.50;0.20;;;;;;;19.32;100.00;99510.00;4974787;28;20851;-50
2023/08/25 06:20:54;;;;;;;0.50;0.20;;;;;;;19.27;100.00;99447.50;4974729;28;20447;-50
2023/08/25 06:23:21;;;;;;;0.50;0.30;;;;;;;19.55;100.00;99502.84;4974533;28;20458;-49
2023/08/25 06:25:48;;;;;;;0.50;0.20;;;;;;;20.00;100.00;99573.88;4974417;28;20450;-49
2023/08/25 06:28:15;;;;;;;0.50;0.20;;;;;;;20.31;100.00;99634.41;4974443;28;20528;-50
2023/08/25 06:30:42;;;;;;;0.50;0.20;;;;;;;20.29;100.00;99630.97;4974769;28;20538;-50
2023/08/25 06:33:10;;;;;;;0.40;0.20;;;;;;;20.58;100.00;99634.09;4974629;28;20668;-49
2023/08/25 06:35:38;;;;;;;0.40;0.20;;;;;;;20.66;100.00;99629.75;4986579;28;20457;-49
2023/08/25 06:38:04;;;;;;;0.40;0.20;;;;;;;20.76;100.00;99629.88;4974251;28;20465;-49
2023/08/25 06:40:34;;;;;;;0.40;0.20;;;;;;;20.95;100.00;99640.03;4974317;28;20533;-50
2023/08/25 06:43:03;;;;;;;0.40;0.20;;;;;;;21.05;100.00;99626.63;4974265;28;20425;-50
2023/08/25 06:45:30;;;;;;;0.40;0.20;;;;;;;20.57;100.00;99624.25;4974116;28;20537;-49
2023/08/25 06:47:57;;;;;;;0.40;0.20;;;;;;;20.89;100.00;99633.31;4974253;28;20445;-50
2023/08/25 06:50:24;;;;;;;0.40;0.20;;;;;;;20.68;100.00;99624.22;4974279;28;20454;-49
2023/08/25 06:52:51;;;;;;;0.40;0.20;;;;;;;20.61;100.00;99629.28;4974066;28;20580;-49
2023/08/25 06:55:18;;;;;;;0.40;0.20;;;;;;;20.74;100.00;99634.56;4973970;28;20454;-49
2023/08/25 06:57:47;;;;;;;0.40;0.20;;;;;;;20.74;100.00;99621.06;4974659;28;20567;-49
2023/08/25 07:00:14;;;;;;;0.40;0.20;;;;;;;20.71;100.00;99615.91;4974031;28;20984;-49
2023/08/25 07:02:42;;;;;;;0.40;0.20;;;;;;;20.80;100.00;99612.44;4974172;28;20442;-50
2023/08/25 07:05:10;;;;;;;0.40;0.20;;;;;;;20.70;100.00;99615.03;4974008;28;20451;-50
2023/08/25 07:07:37;;;;;;;0.40;0.20;;;;;;;20.79;100.00;99613.41;4973719;28;20452;-50
2023/08/25 07:10:04;;;;;;;0.40;0.20;;;;;;;20.80;100.00;99616.97;4973771;28;20454;-50
2023/08/25 07:12:31;;;;;;;0.50;0.30;;;;;;;20.79;100.00;99621.53;4973960;28;20922;-49
2023/08/25 07:14:58;;;;;;;0.40;0.20;;;;;;;20.83;100.00;99617.59;4974054;28;20433;-49
2023/08/25 07:17:24;;;;;;;0.40;0.20;;;;;;;20.82;100.00;99605.06;4973655;28;20452;-50
2023/08/25 07:19:51;;;;;;;0.40;0.30;;;;;;;20.74;100.00;99612.09;4973675;28;20433;-50
2023/08/25 07:22:17;;;;;;;0.40;0.20;;;;;;;20.88;100.00;99615.38;4973555;28;20429;-49
2023/08/25 07:24:46;;;;;;;0.40;0.20;;;;;;;20.95;100.00;99604.91;4973679;28;20499;-49
2023/08/25 07:27:16;;;;;;;2.20;2.10;;;;;;;21.10;100.00;99609.03;4973790;28;20702;-49
2023/08/25 07:29:43;;;;;;;0.40;0.20;;;;;;;20.97;100.00;99619.19;4973636;28;20596;-49
2023/08/25 07:32:09;;;;;;;0.40;0.20;;;;;;;21.19;100.00;99632.63;4973404;28;21036;-50
2023/08/25 07:34:36;;;;;;;0.40;0.20;;;;;;;21.41;100.00;99641.69;4977280;28;20477;-50
2023/08/25 07:37:03;;;;;;;0.47;0.20;;;;;;;21.52;100.00;99633.53;4982929;28;20489;-51
2023/08/25 07:39:29;;;;;;;0.40;0.20;;;;;;;21.48;100.00;99641.03;4973308;28;20792;-50
2023/08/25 07:41:56;;;;;;;0.40;0.20;;;;;;;21.60;100.00;99644.53;4973384;28;20904;-50
2023/08/25 07:44:22;;;;;;;0.40;0.20;;;;;;;21.76;100.00;99641.38;4973491;28;20456;-50
2023/08/25 07:46:49;;;;;;;0.40;0.20;;;;;;;22.04;100.00;99629.91;4973512;28;20506;-51
2023/08/25 07:49:15;;;;;;;0.40;0.20;;;;;;;22.27;100.00;99637.91;4973532;28;20437;-50
2023/08/25 07:51:42;;;;;;;0.50;0.20;;;;;;;22.25;100.00;99623.66;4977173;28;20464;-51
2023/08/25 07:54:08;;;;;;;0.50;0.20;;;;;;;22.43;100.00;99614.75;4977207;28;20927;-50
2023/08/25 07:56:35;;;;;;;0.50;0.30;;;;;;;22.42;100.00;99620.31;4977528;28;20449;-51
2023/08/25 07:59:03;;;;;;;0.50;0.20;;;;;;;22.56;100.00;99630.78;4977114;28;20509;-51
2023/08/25 08:01:30;;;;;;;0.40;0.20;;;;;;;22.51;100.00;99634.91;4977360;28;20477;-50
2023/08/25 08:03:57;;;;;;;0.50;0.20;;;;;;;22.67;100.00;99617.13;4977013;28;20429;-50
2023/08/25 08:06:24;;;;;;;0.50;0.20;;;;;;;23.03;100.00;99633.84;4976997;28;20452;-50
2023/08/25 08:08:50;;;;;;;0.50;0.30;;;;;;;23.01;100.00;99657.50;4977147;28;20480;-50
2023/08/25 08:11:18;;;;;;;0.50;0.30;;;;;;;23.26;100.00;99646.13;4977271;28;20537;-50
2023/08/25 08:13:44;;;;;;;0.50;0.20;;;;;;;23.08;100.00;99636.97;4977015;28;20469;-50
2023/08/25 08:16:11;;;;;;;0.50;0.40;;;;;;;23.57;100.00;99637.88;4977018;28;20870;-50
2023/08/25 08:18:37;;;;;;;0.50;0.23;;;;;;;23.85;100.00;99626.19;4976991;28;20849;-50
2023/08/25 08:21:04;;;;;;;0.50;0.20;;;;;;;23.55;100.00;99620.88;4977110;28;20442;-50
2023/08/25 08:23:30;;;;;;;0.50;0.20;;;;;;;23.55;100.00;99623.59;4976631;28;20882;-50
2023/08/25 08:25:58;;;;;;;0.50;0.20;;;;;;;23.54;100.00;99621.88;4977130;28;20448;-50
2023/08/25 08:28:24;;;;;;;0.50;0.20;;;;;;;23.72;100.00;99622.06;4977357;28;21334;-50
2023/08/25 08:30:51;;;;;;;0.50;0.20;;;;;;;23.58;100.00;99628.78;4976771;28;20610;-50
2023/08/25 08:33:18;;;;;;;0.50;0.20;;;;;;;23.53;100.00;99640.00;4976533;28;20545;-50
2023/08/25 08:35:44;;;;;;;0.50;0.30;;;;;;;23.63;100.00;99630.06;4989223;28;20453;-49
2023/08/25 08:38:10;;;;;;;0.50;0.30;;;;;;;24.12;100.00;99643.56;4976484;28;20446;-50
2023/08/25 08:40:37;;;;;;;0.50;0.20;;;;;;;24.30;100.00;99647.28;4976627;28;20451;-51
2023/08/25 08:43:08;;;;;;;0.50;0.20;;;;;;;24.20;100.00;99663.56;4976730;28;20477;-50
2023/08/25 08:45:38;;;;;;;0.50;0.20;;;;;;;24.66;99.75;99667.31;4976303;28;20477;-50
2023/08/25 08:48:06;;;;;;;0.50;0.20;;;;;;;24.70;100.00;99660.59;4976411;28;20462;-50
2023/08/25 08:50:33;;;;;;;0.50;0.30;;;;;;;24.86;100.00;99662.66;4976263;28;20454;-50
2023/08/25 08:53:04;;;;;;;0.50;0.20;;;;;;;25.15;98.78;99665.25;4976145;28;20498;-50
2023/08/25 08:55:32;;;;;;;0.50;0.20;;;;;;;25.24;98.31;99656.19;4976294;28;20474;-50
2023/08/25 08:57:59;;;;;;;0.50;0.30;;;;;;;25.24;96.46;99677.09;4976242;28;20474;-51
2023/08/25 09:00:27;;;;;;;0.50;0.30;;;;;;;25.39;96.87;99686.44;4975458;28;20441;-50
2023/08/25 09:02:57;;;;;;;0.50;0.30;;;;;;;25.47;96.08;99697.41;4976389;28;20432;-50
2023/08/25 09:05:27;;;;;;;0.50;0.27;;;;;;;25.02;97.32;99698.25;4976319;28;20539;-50
2023/08/25 09:08:03;;;;;;;0.50;0.30;;;;;;;25.15;97.94;99691.59;4975898;28;20557;-50
2023/08/25 09:10:30;;;;;;;0.50;0.23;;;;;;;25.32;96.83;99688.06;4976015;28;20450;-50
2023/08/25 09:12:57;;;;;;;0.50;0.27;;;;;;;25.33;95.81;99687.06;4975770;28;20472;-50
2023/08/25 09:15:26;;;;;;;0.50;0.20;;;;;;;25.17;96.32;99685.00;4975849;28;20964;-50
2023/08/25 09:18:04;;;;;;;0.50;0.30;;;;;;;25.27;95.46;99684.94;4976053;28;20587;-50
2023/08/25 09:20:33;;;;;;;0.50;0.30;;;;;;;25.20;97.13;99678.41;4975917;28;20966;-50
2023/08/25 09:23:03;;;;;;;0.50;0.30;;;;;;;25.24;95.84;99652.63;4975599;28;20450;-50
2023/08/25 09:25:33;;;;;;;0.50;0.30;;;;;;;25.23;95.08;99656.34;4975714;28;20451;-50
2023/08/25 09:28:02;;;;;;;0.50;0.20;;;;;;;25.37;93.60;99642.22;4975710;28;20532;-50
2023/08/25 09:30:39;;;;;;;0.50;0.30;;;;;;;25.57;93.04;99626.56;4975944;28;20534;-50
2023/08/25 09:33:13;;;;;;;0.50;0.30;;;;;;;25.72;94.09;99618.75;4975554;28;20552;-50
2023/08/25 09:35:40;;;;;;;0.50;0.30;;;;;;;25.85;93.78;99619.19;4987835;28;20470;-50
2023/08/25 09:38:19;;;;;;;0.50;0.20;;;;;;;26.26;92.14;99618.47;4975287;28;20955;-51
2023/08/25 09:40:48;;;;;;;0.50;0.20;;;;;;;26.21;94.28;99618.09;4975898;28;20450;-50
2023/08/25 09:43:15;;;;;;;0.50;0.30;;;;;;;26.58;91.40;99626.00;4975333;28;21019;-50
2023/08/25 09:45:42;;;;;;;0.50;0.30;;;;;;;26.57;89.27;99607.06;4975327;28;20446;-50
2023/08/25 09:48:13;;;;;;;0.50;0.30;;;;;;;26.93;90.58;99606.91;4975397;28;20914;-51
2023/08/25 09:50:42;;;;;;;0.50;0.20;;;;;;;26.68;90.82;99601.34;4975434;28;20493;-50
2023/08/25 09:53:10;;;;;;;0.50;0.23;;;;;;;27.06;87.80;99610.03;4975227;28;20585;-51
2023/08/25 09:55:38;;;;;;;0.50;0.20;;;;;;;26.99;87.92;99612.53;4975107;28;20932;-51
2023/08/25 09:58:09;;;;;;;0.50;0.30;;;;;;;26.90;85.88;99609.97;4975380;28;20877;-51
2023/08/25 10:00:37;;;;;;;0.50;0.40;;;;;;;26.99;85.31;99609.81;4975316;28;20462;-51
2023/08/25 10:03:08;;;;;;;0.50;0.30;;;;;;;26.90;86.85;99610.81;4975294;28;20455;-50
2023/08/25 10:05:37;;;;;;;0.50;0.30;;;;;;;26.63;87.48;99605.59;4975522;28;20513;-51
2023/08/25 10:08:07;;;;;;;0.50;0.30;;;;;;;26.18;87.39;99593.06;4975229;28;20458;-51
2023/08/25 10:10:36;;;;;;;0.50;0.30;;;;;;;26.12;86.71;99586.34;4975078;28;20450;-50
2023/08/25 10:13:04;;;;;;;0.50;0.27;;;;;;;26.06;86.44;99588.88;4974104;28;20578;-50
2023/08/25 10:15:32;;;;;;;0.50;0.30;;;;;;;26.34;87.15;99578.66;4974819;28;21024;-51
2023/08/25 10:18:06;;;;;;;0.50;0.30;;;;;;;26.72;86.62;99580.03;4974972;28;20470;-51
2023/08/25 10:20:37;;;;;;;0.50;0.30;;;;;;;26.82;84.35;99578.88;4975235;28;20817;-52
2023/08/25 10:23:04;;;;;;;0.50;0.30;;;;;;;26.80;84.79;99567.28;4974630;28;20458;-51
2023/08/25 10:25:31;;;;;;;0.50;0.30;;;;;;;26.96;84.27;99563.75;4974813;28;20454;-50
2023/08/25 10:28:03;;;;;;;0.50;0.27;;;;;;;26.86;83.25;99557.59;4974447;28;20889;-51
2023/08/25 10:30:31;;;;;;;0.50;0.30;;;;;;;27.20;83.09;99554.81;4974916;28;20963;-50
2023/08/25 10:33:10;;;;;;;0.50;0.20;;;;;;;27.10;82.21;99565.00;4974754;28;20522;-51
2023/08/25 10:35:44;;;;;;;0.50;0.30;;;;;;;27.52;82.76;99581.28;4987202;28;20457;-51
2023/08/25 10:38:20;;;;;;;0.60;0.40;;;;;;;27.54;81.05;99568.31;4962468;28;20891;-51
2023/08/25 10:40:51;;;;;;;0.50;0.20;;;;;;;27.56;80.46;99582.66;4974959;28;20880;-51
2023/08/25 10:43:31;;;;;;;0.50;0.30;;;;;;;27.67;80.14;99589.66;4974689;28;20474;-52
2023/08/25 10:46:08;;;;;;;0.50;0.33;;;;;;;27.84;77.62;99585.94;4974147;28;20911;-51
2023/08/25 10:48:38;;;;;;;0.50;0.30;;;;;;;27.86;77.08;99583.03;4974536;28;20456;-52
2023/08/25 10:51:09;;;;;;;0.50;0.23;;;;;;;27.95;79.49;99588.28;4974562;28;20454;-52
2023/08/25 10:53:44;;;;;;;0.50;0.30;;;;;;;27.90;78.09;99592.56;4974198;28;20494;-51
2023/08/25 10:56:16;;;;;;;0.50;0.30;;;;;;;27.86;79.13;99583.03;4974383;28;20474;-52
2023/08/25 10:59:13;;;;;;;0.50;0.27;;;;;;;27.91;78.18;99591.56;4974214;28;20928;-51
2023/08/25 11:01:42;;;;;;;0.50;0.30;;;;;;;27.73;77.87;99595.31;4974474;28;20489;-51
2023/08/25 11:04:11;;;;;;;0.50;0.23;;;;;;;27.81;78.41;99594.44;4974165;28;20446;-51
2023/08/25 11:06:49;;;;;;;0.50;0.30;;;;;;;27.60;78.88;99588.63;4974046;28;20474;-51
2023/08/25 11:09:18;;;;;;;0.50;0.30;;;;;;;27.67;80.14;99581.47;4974004;28;20546;-51
2023/08/25 11:11:46;;;;;;;0.50;0.27;;;;;;;27.59;79.44;99579.59;4973867;28;20971;-51
2023/08/25 11:14:13;;;;;;;0.50;0.30;;;;;;;27.79;79.16;99577.38;4974107;28;20494;-51
2023/08/25 11:16:40;;;;;;;0.50;0.30;;;;;;;27.90;80.00;99571.56;4973828;28;20504;-52
2023/08/25 11:19:10;;;;;;;0.50;0.30;;;;;;;27.66;79.08;99569.69;4973977;28;20458;-51
2023/08/25 11:21:37;;;;;;;0.50;0.30;;;;;;;27.77;79.53;99559.47;4973865;28;20457;-51
2023/08/25 11:24:03;;;;;;;0.50;0.27;;;;;;;27.64;80.33;99577.22;4973481;28;20530;-51
2023/08/25 11:26:33;;;;;;;0.50;0.30;;;;;;;27.57;79.84;99561.66;4973512;28;20506;-50
2023/08/25 11:29:01;;;;;;;0.50;0.30;;;;;;;27.61;79.04;99565.75;4974128;28;20483;-51
2023/08/25 11:31:28;;;;;;;0.50;0.30;;;;;;;27.47;80.10;99559.09;4973869;28;20533;-52